sensor_id;sensor_type;location;lat;lon;timestamp;P1;durP1;ratioP1;P2;durP2;ratioP2
69534;SDS011;56754;51.568;5.048;2023-01-28T00:02:06;3.90;;;1.80;;
69534;SDS011;56754;51.568;5.048;2023-01-28T00:04:32;4.37;;;2.17;;
69534;SDS011;56754;51.568;5.048;2023-01-28T00:06:57;5.30;;;2.27;;
69534;SDS011;56754;51.568;5.048;2023-01-28T00:09:23;4.15;;;1.88;;
69534;SDS011;56754;51.568;5.048;2023-01-28T00:11:48;4.23;;;1.90;;
69534;SDS011;56754;51.568;5.048;2023-01-28T00:14:13;4.77;;;2.30;;
69534;SDS011;56754;51.568;5.048;2023-01-28T00:16:39;5.37;;;2.00;;
69534;SDS011;56754;51.568;5.048;2023-01-28T00:19:04;4.40;;;2.17;;
69534;SDS011;56754;51.568;5.048;2023-01-28T00:21:29;4.60;;;2.10;;
69534;SDS011;56754;51.568;5.048;2023-01-28T00:23:55;3.87;;;1.77;;
69534;SDS011;56754;51.568;5.048;2023-01-28T00:26:21;4.40;;;2.17;;
69534;SDS011;56754;51.568;5.048;2023-01-28T00:28:47;4.10;;;2.00;;
69534;SDS011;56754;51.568;5.048;2023-01-28T00:31:16;4.73;;;2.17;;
69534;SDS011;56754;51.568;5.048;2023-01-28T00:33:44;4.10;;;2.00;;
69534;SDS011;56754;51.568;5.048;2023-01-28T00:36:10;4.75;;;2.10;;
69534;SDS011;56754;51.568;5.048;2023-01-28T00:38:36;4.40;;;2.10;;
69534;SDS011;56754;51.568;5.048;2023-01-28T00:41:11;4.47;;;2.28;;
69534;SDS011;56754;51.568;5.048;2023-01-28T00:43:38;5.07;;;2.40;;
69534;SDS011;56754;51.568;5.048;2023-01-28T00:46:04;4.68;;;2.20;;
69534;SDS011;56754;51.568;5.048;2023-01-28T00:48:31;4.70;;;2.20;;
69534;SDS011;56754;51.568;5.048;2023-01-28T00:51:00;5.88;;;2.38;;
69534;SDS011;56754;51.568;5.048;2023-01-28T00:53:26;5.30;;;2.67;;
69534;SDS011;56754;51.568;5.048;2023-01-28T00:55:52;4.97;;;2.50;;
69534;SDS011;56754;51.568;5.048;2023-01-28T00:58:18;4.27;;;2.10;;
69534;SDS011;56754;51.568;5.048;2023-01-28T01:00:44;4.38;;;2.25;;
69534;SDS011;56754;51.568;5.048;2023-01-28T01:03:09;5.17;;;2.20;;
69534;SDS011;56754;51.568;5.048;2023-01-28T01:05:34;4.68;;;2.40;;
69534;SDS011;56754;51.568;5.048;2023-01-28T01:08:00;4.53;;;2.20;;
69534;SDS011;56754;51.568;5.048;2023-01-28T01:10:25;4.67;;;2.10;;
69534;SDS011;56754;51.568;5.048;2023-01-28T01:12:51;8.95;;;2.33;;
69534;SDS011;56754;51.568;5.048;2023-01-28T01:15:17;4.90;;;2.50;;
69534;SDS011;56754;51.568;5.048;2023-01-28T01:17:43;5.03;;;2.42;;
69534;SDS011;56754;51.568;5.048;2023-01-28T01:20:14;4.87;;;2.37;;
69534;SDS011;56754;51.568;5.048;2023-01-28T01:22:40;4.70;;;2.28;;
69534;SDS011;56754;51.568;5.048;2023-01-28T01:25:05;4.20;;;2.07;;
69534;SDS011;56754;51.568;5.048;2023-01-28T01:27:31;4.97;;;2.38;;
69534;SDS011;56754;51.568;5.048;2023-01-28T01:29:56;4.67;;;2.43;;
69534;SDS011;56754;51.568;5.048;2023-01-28T01:32:22;4.80;;;2.50;;
69534;SDS011;56754;51.568;5.048;2023-01-28T01:34:47;4.67;;;2.37;;
69534;SDS011;56754;51.568;5.048;2023-01-28T01:37:12;5.43;;;2.33;;
69534;SDS011;56754;51.568;5.048;2023-01-28T01:39:38;4.50;;;2.33;;
69534;SDS011;56754;51.568;5.048;2023-01-28T01:42:03;4.50;;;2.40;;
69534;SDS011;56754;51.568;5.048;2023-01-28T01:47:19;7.13;;;2.65;;
69534;SDS011;56754;51.568;5.048;2023-01-28T01:49:49;4.20;;;2.10;;
69534;SDS011;56754;51.568;5.048;2023-01-28T01:52:17;4.63;;;2.30;;
69534;SDS011;56754;51.568;5.048;2023-01-28T01:54:47;4.35;;;2.13;;
69534;SDS011;56754;51.568;5.048;2023-01-28T01:57:20;4.67;;;2.60;;
69534;SDS011;56754;51.568;5.048;2023-01-28T01:59:49;4.57;;;2.15;;
69534;SDS011;56754;51.568;5.048;2023-01-28T02:02:14;5.38;;;2.80;;
69534;SDS011;56754;51.568;5.048;2023-01-28T02:04:41;5.40;;;3.00;;
69534;SDS011;56754;51.568;5.048;2023-01-28T02:07:08;4.95;;;2.90;;
69534;SDS011;56754;51.568;5.048;2023-01-28T02:09:35;4.97;;;2.88;;
69534;SDS011;56754;51.568;5.048;2023-01-28T02:12:11;5.03;;;2.80;;
69534;SDS011;56754;51.568;5.048;2023-01-28T02:14:46;5.28;;;2.80;;
69534;SDS011;56754;51.568;5.048;2023-01-28T02:17:16;5.27;;;2.80;;
69534;SDS011;56754;51.568;5.048;2023-01-28T02:20:02;5.63;;;2.70;;
69534;SDS011;56754;51.568;5.048;2023-01-28T02:25:24;5.00;;;2.57;;
69534;SDS011;56754;51.568;5.048;2023-01-28T02:31:18;4.70;;;2.55;;
69534;SDS011;56754;51.568;5.048;2023-01-28T02:36:47;5.10;;;2.90;;
69534;SDS011;56754;51.568;5.048;2023-01-28T02:39:23;5.87;;;3.10;;
69534;SDS011;56754;51.568;5.048;2023-01-28T02:41:55;4.90;;;2.78;;
69534;SDS011;56754;51.568;5.048;2023-01-28T02:44:31;5.75;;;3.25;;
69534;SDS011;56754;51.568;5.048;2023-01-28T02:46:57;4.80;;;2.80;;
69534;SDS011;56754;51.568;5.048;2023-01-28T03:00:26;5.85;;;2.65;;
69534;SDS011;56754;51.568;5.048;2023-01-28T03:03:04;5.20;;;2.67;;
69534;SDS011;56754;51.568;5.048;2023-01-28T03:05:53;4.80;;;2.63;;
69534;SDS011;56754;51.568;5.048;2023-01-28T03:08:24;4.93;;;2.60;;
69534;SDS011;56754;51.568;5.048;2023-01-28T03:10:49;4.93;;;2.63;;
69534;SDS011;56754;51.568;5.048;2023-01-28T03:13:16;5.40;;;2.50;;
69534;SDS011;56754;51.568;5.048;2023-01-28T03:15:46;4.97;;;2.63;;
69534;SDS011;56754;51.568;5.048;2023-01-28T03:18:17;5.22;;;3.03;;
69534;SDS011;56754;51.568;5.048;2023-01-28T03:20:56;5.40;;;3.00;;
69534;SDS011;56754;51.568;5.048;2023-01-28T03:23:29;5.30;;;2.90;;
69534;SDS011;56754;51.568;5.048;2023-01-28T03:26:00;5.50;;;2.78;;
69534;SDS011;56754;51.568;5.048;2023-01-28T03:28:27;5.10;;;2.80;;
69534;SDS011;56754;51.568;5.048;2023-01-28T03:30:58;5.35;;;2.83;;
69534;SDS011;56754;51.568;5.048;2023-01-28T03:33:34;5.82;;;3.20;;
69534;SDS011;56754;51.568;5.048;2023-01-28T03:36:00;7.70;;;3.10;;
69534;SDS011;56754;51.568;5.048;2023-01-28T03:38:26;4.90;;;2.70;;
69534;SDS011;56754;51.568;5.048;2023-01-28T03:40:53;5.40;;;3.10;;
69534;SDS011;56754;51.568;5.048;2023-01-28T03:43:20;5.38;;;2.95;;
69534;SDS011;56754;51.568;5.048;2023-01-28T03:45:46;5.97;;;3.20;;
69534;SDS011;56754;51.568;5.048;2023-01-28T03:48:11;6.37;;;3.10;;
69534;SDS011;56754;51.568;5.048;2023-01-28T03:50:37;5.75;;;3.25;;
69534;SDS011;56754;51.568;5.048;2023-01-28T03:53:02;5.57;;;3.23;;
69534;SDS011;56754;51.568;5.048;2023-01-28T03:55:27;6.20;;;3.20;;
69534;SDS011;56754;51.568;5.048;2023-01-28T03:57:52;6.33;;;3.20;;
69534;SDS011;56754;51.568;5.048;2023-01-28T04:00:18;5.30;;;2.90;;
69534;SDS011;56754;51.568;5.048;2023-01-28T04:02:43;5.47;;;2.90;;
69534;SDS011;56754;51.568;5.048;2023-01-28T04:05:08;4.77;;;2.60;;
69534;SDS011;56754;51.568;5.048;2023-01-28T04:07:34;5.30;;;2.80;;
69534;SDS011;56754;51.568;5.048;2023-01-28T04:09:59;4.83;;;2.47;;
69534;SDS011;56754;51.568;5.048;2023-01-28T04:12:24;5.80;;;2.83;;
69534;SDS011;56754;51.568;5.048;2023-01-28T04:14:50;5.27;;;2.80;;
69534;SDS011;56754;51.568;5.048;2023-01-28T04:17:15;5.50;;;3.13;;
69534;SDS011;56754;51.568;5.048;2023-01-28T04:19:40;5.70;;;3.10;;
69534;SDS011;56754;51.568;5.048;2023-01-28T04:22:06;5.50;;;2.93;;
69534;SDS011;56754;51.568;5.048;2023-01-28T04:24:34;5.68;;;3.22;;
69534;SDS011;56754;51.568;5.048;2023-01-28T04:26:59;5.50;;;2.93;;
69534;SDS011;56754;51.568;5.048;2023-01-28T04:29:24;6.13;;;3.20;;
69534;SDS011;56754;51.568;5.048;2023-01-28T04:31:50;5.40;;;2.73;;
69534;SDS011;56754;51.568;5.048;2023-01-28T04:34:15;5.77;;;3.03;;
69534;SDS011;56754;51.568;5.048;2023-01-28T04:36:40;5.40;;;2.57;;
69534;SDS011;56754;51.568;5.048;2023-01-28T04:39:06;6.20;;;3.50;;
69534;SDS011;56754;51.568;5.048;2023-01-28T04:41:31;5.77;;;3.20;;
69534;SDS011;56754;51.568;5.048;2023-01-28T04:43:56;5.10;;;2.80;;
69534;SDS011;56754;51.568;5.048;2023-01-28T04:46:22;5.70;;;3.17;;
69534;SDS011;56754;51.568;5.048;2023-01-28T04:48:47;5.10;;;2.70;;
69534;SDS011;56754;51.568;5.048;2023-01-28T04:51:12;6.60;;;3.40;;
69534;SDS011;56754;51.568;5.048;2023-01-28T04:53:38;5.47;;;3.00;;
69534;SDS011;56754;51.568;5.048;2023-01-28T04:56:03;5.80;;;3.07;;
69534;SDS011;56754;51.568;5.048;2023-01-28T04:58:28;7.40;;;3.20;;
69534;SDS011;56754;51.568;5.048;2023-01-28T05:00:54;6.37;;;3.23;;
69534;SDS011;56754;51.568;5.048;2023-01-28T05:03:20;5.95;;;3.03;;
69534;SDS011;56754;51.568;5.048;2023-01-28T05:05:46;6.50;;;3.40;;
69534;SDS011;56754;51.568;5.048;2023-01-28T05:08:11;6.37;;;3.30;;
69534;SDS011;56754;51.568;5.048;2023-01-28T05:10:37;6.50;;;3.73;;
69534;SDS011;56754;51.568;5.048;2023-01-28T05:13:02;6.07;;;3.20;;
69534;SDS011;56754;51.568;5.048;2023-01-28T05:15:27;6.03;;;3.23;;
69534;SDS011;56754;51.568;5.048;2023-01-28T05:17:53;6.13;;;3.30;;
69534;SDS011;56754;51.568;5.048;2023-01-28T05:20:19;6.35;;;3.28;;
69534;SDS011;56754;51.568;5.048;2023-01-28T05:22:44;6.33;;;3.17;;
69534;SDS011;56754;51.568;5.048;2023-01-28T05:25:09;7.37;;;3.50;;
69534;SDS011;56754;51.568;5.048;2023-01-28T05:27:34;6.70;;;3.30;;
69534;SDS011;56754;51.568;5.048;2023-01-28T05:30:00;6.47;;;3.30;;
69534;SDS011;56754;51.568;5.048;2023-01-28T05:32:25;7.17;;;3.43;;
69534;SDS011;56754;51.568;5.048;2023-01-28T05:34:50;6.80;;;3.55;;
69534;SDS011;56754;51.568;5.048;2023-01-28T05:37:16;6.17;;;3.30;;
69534;SDS011;56754;51.568;5.048;2023-01-28T05:39:41;6.17;;;3.40;;
69534;SDS011;56754;51.568;5.048;2023-01-28T05:42:06;5.80;;;2.97;;
69534;SDS011;56754;51.568;5.048;2023-01-28T05:44:32;6.57;;;3.60;;
69534;SDS011;56754;51.568;5.048;2023-01-28T05:46:57;6.40;;;3.42;;
69534;SDS011;56754;51.568;5.048;2023-01-28T05:49:23;5.60;;;3.07;;
69534;SDS011;56754;51.568;5.048;2023-01-28T05:51:48;6.17;;;3.20;;
69534;SDS011;56754;51.568;5.048;2023-01-28T05:54:13;6.73;;;3.50;;
69534;SDS011;56754;51.568;5.048;2023-01-28T05:56:39;6.80;;;3.17;;
69534;SDS011;56754;51.568;5.048;2023-01-28T05:59:04;6.83;;;3.57;;
69534;SDS011;56754;51.568;5.048;2023-01-28T06:01:30;6.67;;;3.37;;
69534;SDS011;56754;51.568;5.048;2023-01-28T06:03:55;6.83;;;3.77;;
69534;SDS011;56754;51.568;5.048;2023-01-28T06:06:20;6.30;;;3.40;;
69534;SDS011;56754;51.568;5.048;2023-01-28T06:08:46;5.80;;;3.28;;
69534;SDS011;56754;51.568;5.048;2023-01-28T06:11:11;6.07;;;3.43;;
69534;SDS011;56754;51.568;5.048;2023-01-28T06:13:37;6.10;;;3.10;;
69534;SDS011;56754;51.568;5.048;2023-01-28T06:16:02;6.80;;;3.37;;
69534;SDS011;56754;51.568;5.048;2023-01-28T06:18:28;6.05;;;3.35;;
69534;SDS011;56754;51.568;5.048;2023-01-28T06:20:53;6.40;;;3.57;;
69534;SDS011;56754;51.568;5.048;2023-01-28T06:23:19;7.13;;;3.40;;
69534;SDS011;56754;51.568;5.048;2023-01-28T06:25:44;6.10;;;3.37;;
69534;SDS011;56754;51.568;5.048;2023-01-28T06:28:09;5.20;;;3.00;;
69534;SDS011;56754;51.568;5.048;2023-01-28T06:30:34;6.70;;;3.60;;
69534;SDS011;56754;51.568;5.048;2023-01-28T06:33:00;6.53;;;3.40;;
69534;SDS011;56754;51.568;5.048;2023-01-28T06:35:25;6.10;;;3.50;;
69534;SDS011;56754;51.568;5.048;2023-01-28T06:37:51;6.23;;;3.33;;
69534;SDS011;56754;51.568;5.048;2023-01-28T06:40:17;6.22;;;3.13;;
69534;SDS011;56754;51.568;5.048;2023-01-28T06:42:42;6.78;;;3.67;;
69534;SDS011;56754;51.568;5.048;2023-01-28T06:45:08;6.60;;;3.60;;
69534;SDS011;56754;51.568;5.048;2023-01-28T06:47:33;6.57;;;3.90;;
69534;SDS011;56754;51.568;5.048;2023-01-28T06:49:59;6.23;;;3.67;;
69534;SDS011;56754;51.568;5.048;2023-01-28T06:52:24;6.40;;;3.58;;
69534;SDS011;56754;51.568;5.048;2023-01-28T06:54:49;6.13;;;3.70;;
69534;SDS011;56754;51.568;5.048;2023-01-28T06:57:15;6.37;;;3.50;;
69534;SDS011;56754;51.568;5.048;2023-01-28T06:59:40;6.60;;;3.50;;
69534;SDS011;56754;51.568;5.048;2023-01-28T07:02:05;5.80;;;3.40;;
69534;SDS011;56754;51.568;5.048;2023-01-28T07:04:30;6.50;;;3.67;;
69534;SDS011;56754;51.568;5.048;2023-01-28T07:06:56;6.57;;;3.77;;
69534;SDS011;56754;51.568;5.048;2023-01-28T07:09:21;6.05;;;3.30;;
69534;SDS011;56754;51.568;5.048;2023-01-28T07:11:46;7.53;;;3.77;;
69534;SDS011;56754;51.568;5.048;2023-01-28T07:14:12;6.83;;;3.70;;
69534;SDS011;56754;51.568;5.048;2023-01-28T07:16:37;6.80;;;3.83;;
69534;SDS011;56754;51.568;5.048;2023-01-28T07:19:02;6.90;;;3.80;;
69534;SDS011;56754;51.568;5.048;2023-01-28T07:21:27;6.70;;;3.80;;
69534;SDS011;56754;51.568;5.048;2023-01-28T07:23:53;6.20;;;3.80;;
69534;SDS011;56754;51.568;5.048;2023-01-28T07:26:18;7.07;;;4.00;;
69534;SDS011;56754;51.568;5.048;2023-01-28T07:28:43;6.47;;;3.73;;
69534;SDS011;56754;51.568;5.048;2023-01-28T07:31:08;6.33;;;3.43;;
69534;SDS011;56754;51.568;5.048;2023-01-28T07:33:34;6.13;;;3.45;;
69534;SDS011;56754;51.568;5.048;2023-01-28T07:35:59;5.80;;;3.23;;
69534;SDS011;56754;51.568;5.048;2023-01-28T07:38:24;6.60;;;3.90;;
69534;SDS011;56754;51.568;5.048;2023-01-28T07:40:50;6.90;;;3.50;;
69534;SDS011;56754;51.568;5.048;2023-01-28T07:43:15;8.27;;;3.90;;
69534;SDS011;56754;51.568;5.048;2023-01-28T07:45:40;6.37;;;3.90;;
69534;SDS011;56754;51.568;5.048;2023-01-28T07:48:06;6.50;;;3.70;;
69534;SDS011;56754;51.568;5.048;2023-01-28T07:50:33;6.80;;;3.70;;
69534;SDS011;56754;51.568;5.048;2023-01-28T07:53:04;6.80;;;3.88;;
69534;SDS011;56754;51.568;5.048;2023-01-28T07:55:35;6.90;;;3.78;;
69534;SDS011;56754;51.568;5.048;2023-01-28T07:58:01;7.57;;;4.03;;
69534;SDS011;56754;51.568;5.048;2023-01-28T08:00:29;7.00;;;4.00;;
69534;SDS011;56754;51.568;5.048;2023-01-28T08:02:56;6.32;;;3.40;;
69534;SDS011;56754;51.568;5.048;2023-01-28T08:05:23;7.20;;;4.00;;
69534;SDS011;56754;51.568;5.048;2023-01-28T08:07:49;6.53;;;4.00;;
69534;SDS011;56754;51.568;5.048;2023-01-28T08:10:16;5.87;;;3.43;;
69534;SDS011;56754;51.568;5.048;2023-01-28T08:12:54;6.83;;;3.77;;
69534;SDS011;56754;51.568;5.048;2023-01-28T08:15:21;7.40;;;4.40;;
69534;SDS011;56754;51.568;5.048;2023-01-28T08:17:47;6.25;;;3.80;;
69534;SDS011;56754;51.568;5.048;2023-01-28T08:20:12;6.50;;;3.50;;
69534;SDS011;56754;51.568;5.048;2023-01-28T08:22:38;5.60;;;3.00;;
69534;SDS011;56754;51.568;5.048;2023-01-28T08:25:03;6.73;;;2.97;;
69534;SDS011;56754;51.568;5.048;2023-01-28T08:27:29;7.13;;;4.03;;
69534;SDS011;56754;51.568;5.048;2023-01-28T08:29:54;7.30;;;4.00;;
69534;SDS011;56754;51.568;5.048;2023-01-28T08:32:20;8.27;;;4.40;;
69534;SDS011;56754;51.568;5.048;2023-01-28T08:34:45;7.07;;;4.13;;
69534;SDS011;56754;51.568;5.048;2023-01-28T08:37:10;6.82;;;3.90;;
69534;SDS011;56754;51.568;5.048;2023-01-28T08:39:36;8.37;;;3.90;;
69534;SDS011;56754;51.568;5.048;2023-01-28T08:42:01;8.67;;;3.70;;
69534;SDS011;56754;51.568;5.048;2023-01-28T08:44:26;7.83;;;4.40;;
69534;SDS011;56754;51.568;5.048;2023-01-28T08:46:51;7.73;;;3.97;;
69534;SDS011;56754;51.568;5.048;2023-01-28T08:49:17;7.67;;;4.10;;
69534;SDS011;56754;51.568;5.048;2023-01-28T08:51:42;7.30;;;4.07;;
69534;SDS011;56754;51.568;5.048;2023-01-28T08:54:07;6.47;;;3.40;;
69534;SDS011;56754;51.568;5.048;2023-01-28T08:56:33;6.73;;;3.40;;
69534;SDS011;56754;51.568;5.048;2023-01-28T08:58:58;7.13;;;3.93;;
69534;SDS011;56754;51.568;5.048;2023-01-28T09:01:23;7.53;;;3.50;;
69534;SDS011;56754;51.568;5.048;2023-01-28T09:03:49;7.13;;;4.20;;
69534;SDS011;56754;51.568;5.048;2023-01-28T09:06:14;6.57;;;3.63;;
69534;SDS011;56754;51.568;5.048;2023-01-28T09:08:39;6.80;;;3.93;;
69534;SDS011;56754;51.568;5.048;2023-01-28T09:11:05;8.13;;;4.38;;
69534;SDS011;56754;51.568;5.048;2023-01-28T09:13:30;7.00;;;3.73;;
69534;SDS011;56754;51.568;5.048;2023-01-28T09:15:55;8.97;;;4.73;;
69534;SDS011;56754;51.568;5.048;2023-01-28T09:18:21;7.77;;;4.10;;
69534;SDS011;56754;51.568;5.048;2023-01-28T09:20:46;7.63;;;3.57;;
69534;SDS011;56754;51.568;5.048;2023-01-28T09:23:11;8.10;;;4.00;;
69534;SDS011;56754;51.568;5.048;2023-01-28T09:25:37;8.35;;;4.28;;
69534;SDS011;56754;51.568;5.048;2023-01-28T09:28:03;7.43;;;4.30;;
69534;SDS011;56754;51.568;5.048;2023-01-28T09:30:29;7.03;;;4.00;;
69534;SDS011;56754;51.568;5.048;2023-01-28T09:32:55;7.75;;;4.70;;
69534;SDS011;56754;51.568;5.048;2023-01-28T09:35:21;8.23;;;4.80;;
69534;SDS011;56754;51.568;5.048;2023-01-28T09:37:47;7.63;;;4.33;;
69534;SDS011;56754;51.568;5.048;2023-01-28T09:40:16;6.60;;;3.92;;
69534;SDS011;56754;51.568;5.048;2023-01-28T09:42:54;6.87;;;3.80;;
69534;SDS011;56754;51.568;5.048;2023-01-28T09:48:18;5.50;;;3.17;;
69534;SDS011;56754;51.568;5.048;2023-01-28T09:50:47;6.70;;;3.92;;
69534;SDS011;56754;51.568;5.048;2023-01-28T09:53:15;6.28;;;3.67;;
69534;SDS011;56754;51.568;5.048;2023-01-28T09:55:57;6.37;;;3.50;;
69534;SDS011;56754;51.568;5.048;2023-01-28T09:58:24;6.78;;;3.90;;
69534;SDS011;56754;51.568;5.048;2023-01-28T10:03:48;6.38;;;3.67;;
69534;SDS011;56754;51.568;5.048;2023-01-28T10:17:21;5.27;;;2.57;;
69534;SDS011;56754;51.568;5.048;2023-01-28T10:19:54;6.05;;;3.00;;
69534;SDS011;56754;51.568;5.048;2023-01-28T10:22:26;6.63;;;3.30;;
69534;SDS011;56754;51.568;5.048;2023-01-28T10:25:00;6.38;;;3.30;;
69534;SDS011;56754;51.568;5.048;2023-01-28T10:27:30;5.82;;;3.30;;
69534;SDS011;56754;51.568;5.048;2023-01-28T10:29:57;7.23;;;2.80;;
69534;SDS011;56754;51.568;5.048;2023-01-28T10:32:34;6.70;;;2.90;;
69534;SDS011;56754;51.568;5.048;2023-01-28T10:35:07;6.32;;;3.13;;
69534;SDS011;56754;51.568;5.048;2023-01-28T10:37:33;8.00;;;3.23;;
69534;SDS011;56754;51.568;5.048;2023-01-28T10:40:02;6.18;;;3.30;;
69534;SDS011;56754;51.568;5.048;2023-01-28T10:42:29;6.03;;;3.63;;
69534;SDS011;56754;51.568;5.048;2023-01-28T10:44:56;6.68;;;2.80;;
69534;SDS011;56754;51.568;5.048;2023-01-28T10:47:32;6.15;;;3.20;;
69534;SDS011;56754;51.568;5.048;2023-01-28T10:50:06;6.03;;;2.97;;
69534;SDS011;56754;51.568;5.048;2023-01-28T10:52:54;6.25;;;3.30;;
69534;SDS011;56754;51.568;5.048;2023-01-28T10:55:20;6.75;;;3.35;;
69534;SDS011;56754;51.568;5.048;2023-01-28T10:57:47;5.72;;;3.30;;
69534;SDS011;56754;51.568;5.048;2023-01-28T11:02:46;6.27;;;3.50;;
69534;SDS011;56754;51.568;5.048;2023-01-28T11:05:16;5.60;;;3.33;;
69534;SDS011;56754;51.568;5.048;2023-01-28T11:07:43;5.95;;;3.42;;
69534;SDS011;56754;51.568;5.048;2023-01-28T11:10:25;6.23;;;3.57;;
69534;SDS011;56754;51.568;5.048;2023-01-28T11:12:57;5.97;;;3.15;;
69534;SDS011;56754;51.568;5.048;2023-01-28T11:15:24;6.28;;;3.38;;
69534;SDS011;56754;51.568;5.048;2023-01-28T11:17:54;7.50;;;3.50;;
69534;SDS011;56754;51.568;5.048;2023-01-28T11:20:22;6.10;;;3.35;;
69534;SDS011;56754;51.568;5.048;2023-01-28T11:22:50;5.57;;;3.08;;
69534;SDS011;56754;51.568;5.048;2023-01-28T11:27:49;5.77;;;2.87;;
69534;SDS011;56754;51.568;5.048;2023-01-28T11:30:23;5.85;;;3.20;;
69534;SDS011;56754;51.568;5.048;2023-01-28T11:32:54;5.87;;;2.80;;
69534;SDS011;56754;51.568;5.048;2023-01-28T11:35:24;5.70;;;3.10;;
69534;SDS011;56754;51.568;5.048;2023-01-28T11:37:51;6.28;;;3.08;;
69534;SDS011;56754;51.568;5.048;2023-01-28T11:40:17;5.80;;;2.90;;
69534;SDS011;56754;51.568;5.048;2023-01-28T11:42:43;6.28;;;3.45;;
69534;SDS011;56754;51.568;5.048;2023-01-28T11:45:15;6.00;;;3.40;;
69534;SDS011;56754;51.568;5.048;2023-01-28T11:47:54;5.63;;;2.92;;
69534;SDS011;56754;51.568;5.048;2023-01-28T11:50:24;5.43;;;2.63;;
69534;SDS011;56754;51.568;5.048;2023-01-28T11:52:58;5.20;;;2.90;;
69534;SDS011;56754;51.568;5.048;2023-01-28T11:58:36;5.00;;;2.47;;
69534;SDS011;56754;51.568;5.048;2023-01-28T12:04:11;5.53;;;2.80;;
69534;SDS011;56754;51.568;5.048;2023-01-28T12:06:51;5.55;;;2.50;;
69534;SDS011;56754;51.568;5.048;2023-01-28T12:09:52;6.30;;;2.87;;
69534;SDS011;56754;51.568;5.048;2023-01-28T12:17:49;5.97;;;2.90;;
69534;SDS011;56754;51.568;5.048;2023-01-28T12:26:11;5.70;;;3.10;;
69534;SDS011;56754;51.568;5.048;2023-01-28T12:34:10;6.28;;;3.47;;
69534;SDS011;56754;51.568;5.048;2023-01-28T12:42:11;6.53;;;3.10;;
69534;SDS011;56754;51.568;5.048;2023-01-28T12:44:56;7.00;;;3.30;;
69534;SDS011;56754;51.568;5.048;2023-01-28T12:47:30;6.88;;;2.83;;
69534;SDS011;56754;51.568;5.048;2023-01-28T12:50:09;5.20;;;2.73;;
69534;SDS011;56754;51.568;5.048;2023-01-28T12:52:43;6.35;;;2.83;;
69534;SDS011;56754;51.568;5.048;2023-01-28T12:55:14;5.82;;;2.72;;
69534;SDS011;56754;51.568;5.048;2023-01-28T12:57:43;7.13;;;2.97;;
69534;SDS011;56754;51.568;5.048;2023-01-28T13:02:50;6.13;;;2.70;;
69534;SDS011;56754;51.568;5.048;2023-01-28T13:05:26;5.65;;;2.72;;
69534;SDS011;56754;51.568;5.048;2023-01-28T13:08:00;5.88;;;2.60;;
69534;SDS011;56754;51.568;5.048;2023-01-28T13:10:36;7.00;;;2.80;;
69534;SDS011;56754;51.568;5.048;2023-01-28T13:13:08;5.43;;;2.67;;
69534;SDS011;56754;51.568;5.048;2023-01-28T13:15:41;6.07;;;2.53;;
69534;SDS011;56754;51.568;5.048;2023-01-28T13:18:27;6.30;;;2.40;;
69534;SDS011;56754;51.568;5.048;2023-01-28T13:21:00;6.00;;;2.70;;
69534;SDS011;56754;51.568;5.048;2023-01-28T13:25:55;4.43;;;2.20;;
69534;SDS011;56754;51.568;5.048;2023-01-28T13:28:31;5.03;;;2.00;;
69534;SDS011;56754;51.568;5.048;2023-01-28T13:31:01;5.03;;;2.03;;
69534;SDS011;56754;51.568;5.048;2023-01-28T13:33:35;5.00;;;2.30;;
69534;SDS011;56754;51.568;5.048;2023-01-28T13:36:45;5.50;;;2.10;;
69534;SDS011;56754;51.568;5.048;2023-01-28T13:39:13;4.60;;;2.30;;
69534;SDS011;56754;51.568;5.048;2023-01-28T13:41:43;4.82;;;2.17;;
69534;SDS011;56754;51.568;5.048;2023-01-28T13:49:32;4.87;;;2.20;;
69534;SDS011;56754;51.568;5.048;2023-01-28T13:52:05;5.93;;;2.53;;
69534;SDS011;56754;51.568;5.048;2023-01-28T13:54:49;5.47;;;2.50;;
69534;SDS011;56754;51.568;5.048;2023-01-28T14:19:18;5.00;;;2.33;;
69534;SDS011;56754;51.568;5.048;2023-01-28T14:21:50;5.28;;;2.22;;
69534;SDS011;56754;51.568;5.048;2023-01-28T14:24:16;5.37;;;2.00;;
69534;SDS011;56754;51.568;5.048;2023-01-28T14:31:43;4.82;;;2.28;;
69534;SDS011;56754;51.568;5.048;2023-01-28T14:34:31;4.60;;;2.10;;
69534;SDS011;56754;51.568;5.048;2023-01-28T14:37:00;5.35;;;2.58;;
69534;SDS011;56754;51.568;5.048;2023-01-28T14:39:31;6.15;;;2.70;;
69534;SDS011;56754;51.568;5.048;2023-01-28T14:42:05;4.47;;;2.20;;
69534;SDS011;56754;51.568;5.048;2023-01-28T14:45:09;5.47;;;2.10;;
69534;SDS011;56754;51.568;5.048;2023-01-28T14:58:43;5.80;;;2.50;;
69534;SDS011;56754;51.568;5.048;2023-01-28T15:01:18;4.95;;;2.30;;
69534;SDS011;56754;51.568;5.048;2023-01-28T15:03:51;5.75;;;2.42;;
69534;SDS011;56754;51.568;5.048;2023-01-28T15:06:18;5.20;;;2.20;;
69534;SDS011;56754;51.568;5.048;2023-01-28T15:08:46;5.93;;;2.40;;
69534;SDS011;56754;51.568;5.048;2023-01-28T15:11:12;4.90;;;2.20;;
69534;SDS011;56754;51.568;5.048;2023-01-28T15:13:45;6.85;;;2.80;;
69534;SDS011;56754;51.568;5.048;2023-01-28T15:16:19;6.47;;;2.72;;
69534;SDS011;56754;51.568;5.048;2023-01-28T15:18:47;5.70;;;2.42;;
69534;SDS011;56754;51.568;5.048;2023-01-28T15:21:14;6.97;;;2.50;;
69534;SDS011;56754;51.568;5.048;2023-01-28T15:23:46;5.60;;;2.53;;
69534;SDS011;56754;51.568;5.048;2023-01-28T15:26:16;5.50;;;2.72;;
69534;SDS011;56754;51.568;5.048;2023-01-28T15:28:44;6.53;;;2.90;;
69534;SDS011;56754;51.568;5.048;2023-01-28T15:33:45;7.67;;;3.63;;
69534;SDS011;56754;51.568;5.048;2023-01-28T15:36:19;5.97;;;3.10;;
69534;SDS011;56754;51.568;5.048;2023-01-28T15:38:44;8.52;;;3.83;;
69534;SDS011;56754;51.568;5.048;2023-01-28T15:41:09;6.43;;;3.50;;
69534;SDS011;56754;51.568;5.048;2023-01-28T15:43:36;6.38;;;3.53;;
69534;SDS011;56754;51.568;5.048;2023-01-28T15:46:02;7.90;;;3.33;;
69534;SDS011;56754;51.568;5.048;2023-01-28T15:48:34;6.18;;;3.35;;
69534;SDS011;56754;51.568;5.048;2023-01-28T15:51:04;6.43;;;3.47;;
69534;SDS011;56754;51.568;5.048;2023-01-28T15:53:42;7.30;;;3.50;;
69534;SDS011;56754;51.568;5.048;2023-01-28T15:56:10;6.72;;;3.80;;
69534;SDS011;56754;51.568;5.048;2023-01-28T15:58:37;5.90;;;3.38;;
69534;SDS011;56754;51.568;5.048;2023-01-28T16:01:11;7.45;;;3.15;;
69534;SDS011;56754;51.568;5.048;2023-01-28T16:03:40;6.25;;;3.00;;
69534;SDS011;56754;51.568;5.048;2023-01-28T16:06:17;5.87;;;2.70;;
69534;SDS011;56754;51.568;5.048;2023-01-28T16:08:55;8.80;;;3.10;;
69534;SDS011;56754;51.568;5.048;2023-01-28T16:11:36;6.07;;;3.00;;
69534;SDS011;56754;51.568;5.048;2023-01-28T16:14:02;6.38;;;3.00;;
69534;SDS011;56754;51.568;5.048;2023-01-28T16:16:32;6.47;;;3.40;;
69534;SDS011;56754;51.568;5.048;2023-01-28T16:18:59;8.43;;;3.13;;
69534;SDS011;56754;51.568;5.048;2023-01-28T16:21:29;6.28;;;3.20;;
69534;SDS011;56754;51.568;5.048;2023-01-28T16:24:04;6.45;;;3.30;;
69534;SDS011;56754;51.568;5.048;2023-01-28T16:26:54;6.68;;;3.45;;
69534;SDS011;56754;51.568;5.048;2023-01-28T16:29:25;6.60;;;3.00;;
69534;SDS011;56754;51.568;5.048;2023-01-28T16:31:51;6.75;;;3.35;;
69534;SDS011;56754;51.568;5.048;2023-01-28T16:34:17;5.78;;;3.20;;
69534;SDS011;56754;51.568;5.048;2023-01-28T16:36:43;7.03;;;3.03;;
69534;SDS011;56754;51.568;5.048;2023-01-28T16:39:08;6.30;;;2.97;;
69534;SDS011;56754;51.568;5.048;2023-01-28T16:41:37;9.13;;;3.33;;
69534;SDS011;56754;51.568;5.048;2023-01-28T16:44:04;5.73;;;2.70;;
69534;SDS011;56754;51.568;5.048;2023-01-28T16:46:30;6.40;;;3.40;;
69534;SDS011;56754;51.568;5.048;2023-01-28T16:48:56;6.53;;;3.60;;
69534;SDS011;56754;51.568;5.048;2023-01-28T16:51:21;5.75;;;3.15;;
69534;SDS011;56754;51.568;5.048;2023-01-28T16:53:47;5.90;;;3.10;;
69534;SDS011;56754;51.568;5.048;2023-01-28T16:56:17;5.47;;;2.85;;
69534;SDS011;56754;51.568;5.048;2023-01-28T16:58:44;6.67;;;3.50;;
69534;SDS011;56754;51.568;5.048;2023-01-28T17:01:10;6.00;;;3.10;;